Time;durP1;ratioP1;P1;durP2;ratioP2;P2;SDS_P1;SDS_P2;PMS_P1;PMS_P2;Temp;Humidity;BMP_temperature;BMP_pressure;BME280_temperature;BME280_humidity;BME280_pressure;Samples;Min_cycle;Max_cycle;Signal;HPM_P1;HPM_P2
2021/09/28 00:02:04;;;;;;;5.88;4.15;;;22.70;59.40;;;;;;6231942;27;80503;-62
2021/09/28 00:05:05;;;;;;;7.30;4.47;;;22.70;59.40;;;;;;6230320;28;81522;-62
2021/09/28 00:08:06;;;;;;;8.75;4.60;;;22.60;59.10;;;;;;6233450;27;80669;-62
2021/09/28 00:11:07;;;;;;;8.38;4.22;;;22.70;59.00;;;;;;6231387;27;80559;-62
2021/09/28 00:14:07;;;;;;;7.70;4.45;;;22.60;58.80;;;;;;6232254;27;80419;-62
2021/09/28 00:17:08;;;;;;;8.98;4.95;;;22.60;58.90;;;;;;6223498;27;80465;-62
2021/09/28 00:20:08;;;;;;;7.20;4.72;;;22.60;58.80;;;;;;6225793;27;80634;-62
2021/09/28 00:23:09;;;;;;;7.40;4.38;;;22.60;59.10;;;;;;6232885;27;80828;-62
2021/09/28 00:26:09;;;;;;;7.63;4.57;;;22.60;58.90;;;;;;6220966;28;80440;-62
2021/09/28 00:29:10;;;;;;;7.13;4.55;;;22.60;59.00;;;;;;6232630;28;80605;-61
2021/09/28 00:32:10;;;;;;;6.97;4.60;;;22.60;59.00;;;;;;6233043;27;80479;-61
2021/09/28 00:35:11;;;;;;;6.03;4.10;;;22.60;58.70;;;;;;6231766;27;80745;-61
2021/09/28 00:38:11;;;;;;;5.53;4.10;;;22.60;59.10;;;;;;6233136;27;80745;-62
2021/09/28 00:41:12;;;;;;;8.55;4.20;;;22.60;58.90;;;;;;6229444;27;80372;-62
2021/09/28 00:44:12;;;;;;;6.88;4.28;;;22.60;58.90;;;;;;6232605;27;84856;-62
2021/09/28 00:47:13;;;;;;;7.40;4.22;;;22.60;58.80;;;;;;6227457;28;80658;-62
2021/09/28 00:50:13;;;;;;;7.80;4.35;;;22.60;58.90;;;;;;6230906;27;80566;-63
2021/09/28 00:53:14;;;;;;;6.78;4.40;;;22.60;58.70;;;;;;6233161;27;80308;-63
2021/09/28 00:56:14;;;;;;;5.85;4.00;;;22.60;58.80;;;;;;6232359;27;80309;-63
2021/09/28 00:59:15;;;;;;;5.72;3.75;;;22.60;58.70;;;;;;6233528;28;81538;-63
2021/09/28 01:02:15;;;;;;;7.47;3.90;;;22.60;58.70;;;;;;6232761;27;80639;-62
2021/09/28 01:05:16;;;;;;;5.55;3.95;;;22.60;58.60;;;;;;6224421;27;80410;-63
2021/09/28 01:08:16;;;;;;;5.95;4.15;;;22.60;58.70;;;;;;6230844;27;80425;-63
2021/09/28 01:11:17;;;;;;;6.32;4.07;;;22.60;58.70;;;;;;6231211;27;80366;-62
2021/09/28 01:14:17;;;;;;;8.93;4.35;;;22.60;58.30;;;;;;6225984;28;80202;-62
2021/09/28 01:17:18;;;;;;;6.75;4.28;;;22.50;58.10;;;;;;6223185;27;80703;-61
2021/09/28 01:20:18;;;;;;;8.65;4.70;;;22.50;58.10;;;;;;6226044;27;80830;-61
2021/09/28 01:23:19;;;;;;;7.80;4.20;;;22.50;58.00;;;;;;6226909;27;80337;-62
2021/09/28 01:26:26;;;;;;;7.57;4.10;;;22.50;58.00;;;;;;6232633;27;81742;-62
2021/09/28 01:29:26;;;;;;;6.85;3.58;;;22.50;58.10;;;;;;6232039;27;80414;-61
2021/09/28 01:32:27;;;;;;;8.40;4.10;;;22.60;58.10;;;;;;6230198;27;80867;-62
2021/09/28 01:35:27;;;;;;;7.22;4.43;;;22.50;57.90;;;;;;6229784;28;80947;-61
2021/09/28 01:38:28;;;;;;;5.50;3.67;;;22.60;57.90;;;;;;6225701;28;81414;-61
2021/09/28 01:41:28;;;;;;;6.18;3.55;;;22.50;57.60;;;;;;6230968;27;80441;-62
2021/09/28 01:44:33;;;;;;;8.15;3.80;;;22.50;57.40;;;;;;6231804;27;80550;-61
2021/09/28 01:47:34;;;;;;;6.27;3.47;;;22.50;57.60;;;;;;6231756;28;82485;-62
2021/09/28 01:50:34;;;;;;;5.78;4.03;;;22.50;57.50;;;;;;6229748;27;80660;-61
2021/09/28 01:53:35;;;;;;;6.82;3.50;;;22.50;57.10;;;;;;6232469;28;82450;-61
2021/09/28 01:56:35;;;;;;;6.10;3.72;;;22.50;57.00;;;;;;6230409;27;80563;-61
2021/09/28 01:59:36;;;;;;;6.53;4.25;;;22.50;57.00;;;;;;6229304;28;80302;-61
2021/09/28 02:02:37;;;;;;;5.32;3.80;;;22.50;57.00;;;;;;6231904;27;80398;-61
2021/09/28 02:05:39;;;;;;;6.25;3.60;;;22.50;57.10;;;;;;6233086;27;80853;-61
2021/09/28 02:08:39;;;;;;;6.68;3.45;;;22.50;57.00;;;;;;6218196;28;81649;-61
2021/09/28 02:11:40;;;;;;;5.97;3.78;;;22.50;57.00;;;;;;6223525;27;81662;-61
2021/09/28 02:14:40;;;;;;;5.60;4.00;;;22.50;57.00;;;;;;6228896;28;81303;-61
2021/09/28 02:17:41;;;;;;;5.75;3.45;;;22.50;56.80;;;;;;6232191;27;80367;-60
2021/09/28 02:20:41;;;;;;;6.28;3.35;;;22.50;56.90;;;;;;6230833;27;80440;-60
2021/09/28 02:23:42;;;;;;;5.40;3.70;;;22.50;56.90;;;;;;6232382;27;81300;-60
2021/09/28 02:26:43;;;;;;;6.60;3.53;;;22.50;57.10;;;;;;6227761;27;80558;-61
2021/09/28 02:29:43;;;;;;;6.43;3.67;;;22.50;56.90;;;;;;6229788;27;80406;-62
2021/09/28 02:32:44;;;;;;;7.45;3.90;;;22.50;56.90;;;;;;6219886;28;81585;-61
2021/09/28 02:35:45;;;;;;;4.82;3.00;;;22.50;56.70;;;;;;6218368;27;81566;-62
2021/09/28 02:38:45;;;;;;;4.60;3.35;;;22.50;56.70;;;;;;6231954;28;80368;-62
2021/09/28 02:41:46;;;;;;;8.30;3.38;;;22.50;56.40;;;;;;6229326;28;80359;-62
2021/09/28 02:44:48;;;;;;;7.03;3.55;;;22.50;56.70;;;;;;6231076;28;80454;-61
2021/09/28 02:47:49;;;;;;;6.22;3.58;;;22.50;56.60;;;;;;6229467;28;80725;-62
2021/09/28 02:50:49;;;;;;;5.85;3.13;;;22.50;56.50;;;;;;6228893;28;80563;-62
2021/09/28 02:53:50;;;;;;;5.47;3.70;;;22.50;56.50;;;;;;6229483;28;80247;-62
2021/09/28 02:56:50;;;;;;;10.25;3.95;;;22.40;56.30;;;;;;6216535;27;83677;-62
2021/09/28 02:59:51;;;;;;;7.82;3.95;;;22.50;56.50;;;;;;6231582;28;80411;-62
2021/09/28 03:02:51;;;;;;;7.90;3.85;;;22.50;56.50;;;;;;6230693;27;80711;-62
2021/09/28 03:05:52;;;;;;;7.25;3.72;;;22.40;56.40;;;;;;6241246;28;80364;-62
2021/09/28 03:08:52;;;;;;;7.90;3.97;;;22.40;56.40;;;;;;6222818;28;81482;-62
2021/09/28 03:11:53;;;;;;;4.57;3.60;;;22.40;56.30;;;;;;6230104;28;80329;-62
2021/09/28 03:14:53;;;;;;;8.75;4.85;;;22.40;56.50;;;;;;6229630;28;80268;-62
2021/09/28 03:17:54;;;;;;;6.80;4.32;;;22.40;56.90;;;;;;6228488;28;80622;-61
2021/09/28 03:20:54;;;;;;;6.88;4.35;;;22.40;56.70;;;;;;6231520;27;80395;-61
2021/09/28 03:23:55;;;;;;;6.88;3.88;;;22.40;56.80;;;;;;6225326;27;80675;-61
2021/09/28 03:26:55;;;;;;;8.07;4.45;;;22.40;56.80;;;;;;6232743;27;80840;-61
2021/09/28 03:29:56;;;;;;;10.55;4.70;;;22.40;57.10;;;;;;6233836;27;80846;-62
2021/09/28 03:32:56;;;;;;;10.23;4.78;;;22.40;56.70;;;;;;6234898;27;81067;-62
2021/09/28 03:35:57;;;;;;;7.65;4.70;;;22.40;56.90;;;;;;6235455;27;81867;-62
2021/09/28 03:38:57;;;;;;;7.30;4.30;;;22.40;57.20;;;;;;6227911;27;85011;-63
2021/09/28 03:41:58;;;;;;;9.90;4.60;;;22.40;56.80;;;;;;6234635;27;80658;-61
2021/09/28 03:44:58;;;;;;;9.48;5.00;;;22.40;56.90;;;;;;6226959;27;80544;-63
2021/09/28 03:47:59;;;;;;;8.30;4.13;;;22.40;57.00;;;;;;6233590;28;80457;-62
2021/09/28 03:50:59;;;;;;;9.63;4.60;;;22.40;57.10;;;;;;6234149;27;80428;-62
2021/09/28 03:54:00;;;;;;;7.18;3.65;;;22.40;57.20;;;;;;6227461;28;80532;-62
2021/09/28 03:57:00;;;;;;;8.70;4.10;;;22.40;57.10;;;;;;6234137;27;81294;-62
2021/09/28 04:00:02;;;;;;;6.80;3.85;;;22.40;56.80;;;;;;6230320;27;80463;-61
2021/09/28 04:03:04;;;;;;;7.20;4.13;;;22.40;56.60;;;;;;6234048;27;80599;-62
2021/09/28 04:06:05;;;;;;;7.70;3.60;;;22.40;57.00;;;;;;6229300;27;81962;-61
2021/09/28 04:09:06;;;;;;;8.38;4.60;;;22.40;57.10;;;;;;6233616;27;80588;-62
2021/09/28 04:12:07;;;;;;;7.80;3.92;;;22.40;57.70;;;;;;6232943;27;83202;-61
2021/09/28 04:15:08;;;;;;;6.15;3.38;;;22.40;57.80;;;;;;6230856;27;80848;-62
2021/09/28 04:18:08;;;;;;;7.45;4.00;;;22.50;58.20;;;;;;6225592;27;80349;-62
2021/09/28 04:21:09;;;;;;;6.10;3.75;;;22.40;57.60;;;;;;6228515;27;80451;-61
2021/09/28 04:24:09;;;;;;;8.13;3.92;;;22.50;58.00;;;;;;6234338;27;80623;-60
2021/09/28 04:27:10;;;;;;;8.20;4.20;;;22.50;58.40;;;;;;6234704;27;80399;-62
2021/09/28 04:30:11;;;;;;;10.45;4.05;;;22.50;58.40;;;;;;6230109;27;80579;-62
2021/09/28 04:33:11;;;;;;;8.95;4.60;;;22.50;58.30;;;;;;6226391;28;80372;-61
2021/09/28 04:36:12;;;;;;;6.82;3.70;;;22.50;57.90;;;;;;6227332;28;80390;-61
2021/09/28 04:39:13;;;;;;;5.03;3.38;;;22.50;58.00;;;;;;6231930;28;82229;-62
2021/09/28 04:42:15;;;;;;;7.53;4.03;;;22.50;57.90;;;;;;6237111;27;81073;-61
2021/09/28 04:45:16;;;;;;;6.88;3.40;;;22.50;58.30;;;;;;6226263;27;80616;-62
2021/09/28 04:48:16;;;;;;;6.35;3.22;;;22.40;58.10;;;;;;6230518;27;81022;-61
2021/09/28 04:51:17;;;;;;;4.95;3.35;;;22.50;58.30;;;;;;6233410;27;81056;-62
2021/09/28 04:54:17;;;;;;;7.43;3.50;;;22.50;58.50;;;;;;6233932;27;81488;-62
2021/09/28 04:57:19;;;;;;;8.63;3.47;;;22.50;58.20;;;;;;6231739;27;80698;-61
2021/09/28 05:00:20;;;;;;;7.68;3.45;;;22.50;58.60;;;;;;6231065;27;80671;-62
2021/09/28 05:03:20;;;;;;;6.25;3.58;;;22.50;58.70;;;;;;6230587;27;83345;-61
2021/09/28 05:06:21;;;;;;;7.28;3.45;;;22.50;58.80;;;;;;6223539;28;80534;-61
2021/09/28 05:09:22;;;;;;;9.30;3.90;;;22.50;59.00;;;;;;6230084;27;80555;-61
2021/09/28 05:12:22;;;;;;;8.65;3.47;;;22.50;58.90;;;;;;6232053;27;80401;-63
2021/09/28 05:15:23;;;;;;;6.25;3.13;;;22.50;58.90;;;;;;6233708;27;80445;-61
2021/09/28 05:18:23;;;;;;;5.25;2.92;;;22.50;59.50;;;;;;6231959;27;80280;-66
2021/09/28 05:21:25;;;;;;;6.07;3.10;;;22.50;58.80;;;;;;6232890;27;80918;-63
2021/09/28 05:24:26;;;;;;;5.38;3.10;;;22.50;59.40;;;;;;6222471;28;80464;-63
2021/09/28 05:27:26;;;;;;;4.55;3.08;;;22.50;59.20;;;;;;6232066;27;82722;-62
2021/09/28 05:30:27;;;;;;;5.53;2.83;;;22.50;58.20;;;;;;6232428;27;80724;-63
2021/09/28 05:33:27;;;;;;;5.68;2.83;;;22.50;58.40;;;;;;6229148;28;82206;-64
2021/09/28 05:36:28;;;;;;;4.18;3.03;;;22.50;59.30;;;;;;6228108;27;80854;-63
2021/09/28 05:39:28;;;;;;;5.25;3.00;;;22.50;59.00;;;;;;6218709;28;81023;-63
2021/09/28 05:42:29;;;;;;;7.88;3.25;;;22.60;58.50;;;;;;6231653;28;80672;-63
2021/09/28 05:45:29;;;;;;;7.43;3.50;;;22.50;58.70;;;;;;6232886;28;82506;-63
2021/09/28 05:48:30;;;;;;;8.18;3.28;;;22.50;58.70;;;;;;6231483;27;81927;-63
2021/09/28 05:51:33;;;;;;;10.50;3.40;;;22.50;59.00;;;;;;6232333;28;83244;-63
2021/09/28 05:54:33;;;;;;;5.70;3.85;;;22.50;58.90;;;;;;6230359;27;80191;-63
2021/09/28 05:57:34;;;;;;;11.57;3.67;;;22.50;58.70;;;;;;6230961;27;80516;-63
2021/09/28 06:00:34;;;;;;;10.43;5.30;;;22.50;59.00;;;;;;6224914;27;80563;-63
2021/09/28 06:03:35;;;;;;;16.05;5.32;;;22.40;56.00;;;;;;6221011;28;80389;-63
2021/09/28 06:06:35;;;;;;;12.90;5.63;;;22.40;55.40;;;;;;6231569;27;80719;-63
2021/09/28 06:09:36;;;;;;;12.45;5.28;;;22.40;55.00;;;;;;6222058;27;80579;-63
2021/09/28 06:12:36;;;;;;;11.57;5.63;;;22.40;53.70;;;;;;6221239;28;80720;-62
2021/09/28 06:15:37;;;;;;;11.48;5.90;;;22.30;52.80;;;;;;6231460;28;80820;-62
2021/09/28 06:18:37;;;;;;;11.25;5.72;;;22.30;52.10;;;;;;6226749;27;80805;-65
2021/09/28 06:21:38;;;;;;;13.57;5.75;;;22.20;51.70;;;;;;6226222;28;81535;-63
2021/09/28 06:24:38;;;;;;;12.43;6.47;;;22.20;50.50;;;;;;6231536;28;80696;-62
2021/09/28 06:27:39;;;;;;;12.95;6.75;;;22.20;50.10;;;;;;6231440;27;80668;-62
2021/09/28 06:30:40;;;;;;;14.07;6.20;;;22.10;49.70;;;;;;6231188;28;80555;-63
2021/09/28 06:33:40;;;;;;;14.15;6.97;;;22.10;49.80;;;;;;6230075;28;80789;-63
2021/09/28 06:36:41;;;;;;;13.57;7.32;;;22.00;49.90;;;;;;6230479;27;80990;-63
2021/09/28 06:39:41;;;;;;;15.48;7.45;;;22.00;49.80;;;;;;6231578;28;80414;-63
2021/09/28 06:42:42;;;;;;;13.25;6.95;;;21.90;49.70;;;;;;6216610;28;80593;-61
2021/09/28 06:45:42;;;;;;;17.60;8.15;;;21.90;49.80;;;;;;6230283;27;80791;-61
2021/09/28 06:48:42;;;;;;;17.67;7.03;;;21.90;49.70;;;;;;6229636;27;80450;-62
2021/09/28 06:51:43;;;;;;;17.02;8.02;;;21.90;49.90;;;;;;6227136;27;80306;-61
2021/09/28 06:54:43;;;;;;;14.23;7.88;;;21.90;49.80;;;;;;6224169;28;81667;-62
2021/09/28 06:57:44;;;;;;;20.35;9.20;;;21.90;49.40;;;;;;6220576;28;80473;-62
2021/09/28 07:00:44;;;;;;;15.55;7.95;;;21.90;49.50;;;;;;6223835;28;80332;-62
2021/09/28 07:03:45;;;;;;;16.20;8.15;;;21.80;49.50;;;;;;6220420;28;80811;-62
2021/09/28 07:06:46;;;;;;;17.48;8.77;;;21.80;49.50;;;;;;6224559;28;80735;-62
2021/09/28 07:09:47;;;;;;;19.80;9.32;;;21.80;49.70;;;;;;6228752;28;80436;-62
2021/09/28 07:12:48;;;;;;;18.83;8.88;;;21.70;49.40;;;;;;6229014;28;81125;-62
2021/09/28 07:15:49;;;;;;;21.80;9.57;;;21.70;49.50;;;;;;6226731;27;81303;-62
2021/09/28 07:18:50;;;;;;;18.58;8.05;;;21.70;49.60;;;;;;6230513;27;80475;-63
2021/09/28 07:21:50;;;;;;;17.67;9.07;;;21.70;49.40;;;;;;6229328;27;80714;-63
2021/09/28 07:24:51;;;;;;;18.40;8.68;;;21.70;49.40;;;;;;6228445;28;82359;-65
2021/09/28 07:27:55;;;;;;;28.73;10.70;;;21.70;49.80;;;;;;6223947;28;80222;-63
2021/09/28 07:30:55;;;;;;;22.00;8.73;;;21.70;49.30;;;;;;6225384;27;83034;-64
2021/09/28 07:33:57;;;;;;;22.30;9.05;;;21.80;49.30;;;;;;6228730;28;83076;-63
2021/09/28 07:36:58;;;;;;;18.17;8.52;;;21.80;49.50;;;;;;6226893;27;80428;-62
2021/09/28 07:39:58;;;;;;;20.63;8.88;;;21.80;49.30;;;;;;6224747;28;80435;-63
2021/09/28 07:42:59;;;;;;;17.50;8.05;;;21.80;49.50;;;;;;6221470;28;80505;-63
2021/09/28 07:46:00;;;;;;;23.38;8.68;;;21.80;49.50;;;;;;6222833;28;80611;-62
2021/09/28 07:49:01;;;;;;;17.83;8.75;;;21.80;49.40;;;;;;6229788;27;81567;-62
2021/09/28 07:52:01;;;;;;;16.05;7.35;;;21.80;49.20;;;;;;6225131;27;81891;-63
2021/09/28 07:55:02;;;;;;;17.63;7.65;;;21.80;49.20;;;;;;6226191;27;80804;-63
2021/09/28 07:58:02;;;;;;;16.58;7.40;;;21.70;49.00;;;;;;6224918;27;80685;-63
2021/09/28 08:01:03;;;;;;;16.60;7.25;;;21.70;48.90;;;;;;6231039;27;80612;-63
2021/09/28 08:04:03;;;;;;;18.23;7.40;;;21.70;48.80;;;;;;6228296;28;80763;-63
2021/09/28 08:07:07;;;;;;;17.58;7.70;;;21.70;48.90;;;;;;6229535;28;80473;-63
2021/09/28 08:10:07;;;;;;;10.07;6.53;;;21.70;48.90;;;;;;6229235;28;80581;-63
2021/09/28 08:13:08;;;;;;;13.02;6.47;;;21.60;49.10;;;;;;6232714;27;84171;-63
2021/09/28 08:16:09;;;;;;;11.38;6.32;;;21.70;49.30;;;;;;6234734;27;81767;-62
2021/09/28 08:19:09;;;;;;;12.27;6.80;;;21.70;49.30;;;;;;6235021;28;80469;-63
2021/09/28 08:22:10;;;;;;;10.48;6.22;;;21.70;49.20;;;;;;6233368;27;81619;-63
2021/09/28 08:25:13;;;;;;;14.27;6.75;;;21.70;49.10;;;;;;6232202;28;80347;-63
2021/09/28 08:31:33;;;;;;;12.18;7.13;;;21.60;49.10;;;;;;6233923;27;80487;-63
2021/09/28 08:34:33;;;;;;;9.82;6.22;;;21.60;49.00;;;;;;6223500;28;80690;-63
2021/09/28 08:37:34;;;;;;;11.68;6.35;;;21.70;49.20;;;;;;6228404;27;80426;-63
2021/09/28 08:40:34;;;;;;;10.05;5.50;;;21.70;49.40;;;;;;6229704;28;80934;-62
2021/09/28 08:43:35;;;;;;;7.95;5.68;;;21.70;49.30;;;;;;6226124;27;80385;-63
2021/09/28 08:46:35;;;;;;;13.82;5.78;;;21.60;49.40;;;;;;6229545;28;81039;-62
2021/09/28 08:49:36;;;;;;;11.52;5.53;;;21.70;49.30;;;;;;6221979;27;81618;-63
2021/09/28 08:52:36;;;;;;;11.57;5.68;;;21.70;49.40;;;;;;6231096;27;80587;-63
2021/09/28 08:55:37;;;;;;;8.02;5.53;;;21.70;49.40;;;;;;6234878;28;80729;-63
2021/09/28 08:58:37;;;;;;;9.00;5.93;;;21.70;49.40;;;;;;6233616;28;80893;-62
2021/09/28 09:01:38;;;;;;;7.72;5.80;;;21.70;49.60;;;;;;6230804;27;80757;-63
2021/09/28 09:04:38;;;;;;;9.02;5.55;;;21.70;49.70;;;;;;6225776;28;81701;-63
2021/09/28 09:07:39;;;;;;;8.63;5.88;;;21.70;49.70;;;;;;6229869;28;81514;-62
2021/09/28 09:10:39;;;;;;;10.35;5.90;;;21.70;49.70;;;;;;6225669;27;81432;-63
2021/09/28 09:13:40;;;;;;;10.23;5.82;;;21.70;49.90;;;;;;6228925;27;80663;-63
2021/09/28 09:16:41;;;;;;;6.97;5.45;;;21.70;49.80;;;;;;6223774;27;80928;-62
2021/09/28 09:19:41;;;;;;;7.82;5.53;;;21.70;49.90;;;;;;6232373;27;80684;-61
2021/09/28 09:22:42;;;;;;;10.30;5.88;;;21.80;50.00;;;;;;6233727;27;80753;-61
2021/09/28 09:25:43;;;;;;;8.07;5.50;;;21.80;50.10;;;;;;6225149;28;81809;-62
2021/09/28 09:28:43;;;;;;;12.90;6.03;;;21.90;50.20;;;;;;6228721;27;80325;-63
2021/09/28 09:31:45;;;;;;;14.70;5.75;;;21.90;50.30;;;;;;6232871;27;80623;-63
2021/09/28 09:34:45;;;;;;;9.80;4.97;;;21.90;50.00;;;;;;6227315;27;81158;-62
2021/09/28 09:37:46;;;;;;;8.45;5.72;;;21.90;49.90;;;;;;6227937;27;80423;-62
2021/09/28 09:40:46;;;;;;;9.20;5.30;;;21.90;50.00;;;;;;6225773;28;83332;-63
2021/09/28 09:43:48;;;;;;;14.32;5.82;;;21.90;49.80;;;;;;6227445;27;80885;-63
2021/09/28 09:46:50;;;;;;;11.85;5.63;;;21.90;49.90;;;;;;6221643;27;81219;-62
2021/09/28 09:49:50;;;;;;;9.18;5.53;;;21.90;50.00;;;;;;6225466;27;80655;-63
2021/09/28 09:52:51;;;;;;;8.60;5.07;;;21.90;49.80;;;;;;6230399;28;80974;-62
2021/09/28 09:55:51;;;;;;;11.27;5.47;;;21.90;50.30;;;;;;6225033;28;81328;-63
2021/09/28 09:58:51;;;;;;;10.77;5.90;;;21.90;50.70;;;;;;6220388;28;80982;-62
2021/09/28 10:01:52;;;;;;;10.75;5.22;;;22.00;50.70;;;;;;6231413;28;80458;-62
2021/09/28 10:04:53;;;;;;;10.73;5.25;;;22.00;50.40;;;;;;6220800;27;81476;-63
2021/09/28 10:07:54;;;;;;;6.82;4.78;;;22.00;50.60;;;;;;6231059;28;80751;-63
2021/09/28 10:10:55;;;;;;;12.82;5.00;;;22.10;50.70;;;;;;6231672;27;80791;-63
2021/09/28 10:13:57;;;;;;;6.05;4.30;;;22.10;50.80;;;;;;6232353;28;80804;-62
2021/09/28 10:16:59;;;;;;;8.05;5.68;;;22.20;50.20;;;;;;6227465;27;81329;-63
2021/09/28 10:20:01;;;;;;;10.45;5.38;;;22.20;50.60;;;;;;6224503;28;82205;-63
2021/09/28 10:23:02;;;;;;;8.70;4.60;;;22.20;50.60;;;;;;6228115;28;80293;-63
2021/09/28 10:26:02;;;;;;;7.18;4.70;;;22.20;50.40;;;;;;6226778;27;80993;-63
2021/09/28 10:29:03;;;;;;;6.68;4.47;;;22.20;50.40;;;;;;6227903;28;81221;-63
2021/09/28 10:32:03;;;;;;;10.52;4.40;;;22.30;50.70;;;;;;6232817;27;80293;-62
2021/09/28 10:35:05;;;;;;;11.05;4.65;;;22.30;50.90;;;;;;6226639;28;82095;-62
2021/09/28 10:38:05;;;;;;;13.88;5.88;;;22.30;50.80;;;;;;6233417;28;80460;-61
2021/09/28 10:41:06;;;;;;;10.68;4.20;;;22.40;50.60;;;;;;6218770;28;80797;-61
2021/09/28 10:44:06;;;;;;;9.60;5.00;;;22.40;50.50;;;;;;6229786;27;80278;-62
2021/09/28 10:47:07;;;;;;;19.67;5.57;;;22.40;50.60;;;;;;6230853;27;80673;-61
2021/09/28 10:50:07;;;;;;;11.73;5.55;;;22.40;50.60;;;;;;6228909;27;81594;-62
2021/09/28 10:53:08;;;;;;;11.18;4.85;;;22.40;50.80;;;;;;6228441;28;80522;-62
2021/09/28 10:56:08;;;;;;;7.82;4.40;;;22.50;50.60;;;;;;6223009;28;80312;-62
2021/09/28 10:59:10;;;;;;;11.82;5.10;;;22.50;51.00;;;;;;6231430;28;80249;-62
2021/09/28 11:02:10;;;;;;;10.10;5.50;;;22.50;50.20;;;;;;6232905;28;80604;-62
2021/09/28 11:05:11;;;;;;;9.95;4.95;;;22.50;50.40;;;;;;6230605;28;80433;-62
2021/09/28 11:08:14;;;;;;;8.85;4.78;;;22.50;50.00;;;;;;6229192;28;80809;-62
2021/09/28 11:11:15;;;;;;;11.45;4.88;;;22.50;50.00;;;;;;6231418;27;80611;-62
2021/09/28 11:14:15;;;;;;;92.35;17.58;;;22.60;50.20;;;;;;6231219;27;80443;-62
2021/09/28 11:17:16;;;;;;;138.38;22.73;;;22.60;50.40;;;;;;6215790;28;83834;-61
2021/09/28 11:20:16;;;;;;;94.30;18.17;;;22.60;50.30;;;;;;6217031;28;83193;-62
2021/09/28 11:23:17;;;;;;;78.18;14.63;;;22.60;50.00;;;;;;6219253;28;89534;-61
2021/09/28 11:26:18;;;;;;;55.55;12.25;;;22.70;50.00;;;;;;6224611;27;83680;-61
2021/09/28 11:29:18;;;;;;;36.55;9.50;;;22.70;50.00;;;;;;6227824;27;83979;-61
2021/09/28 11:32:19;;;;;;;26.75;10.68;;;22.70;49.60;;;;;;6231697;28;82928;-61
2021/09/28 11:35:19;;;;;;;24.13;11.23;;;22.70;49.70;;;;;;6222856;28;82823;-61
2021/09/28 11:38:20;;;;;;;36.67;13.93;;;22.70;50.10;;;;;;6225904;28;86012;-62
2021/09/28 11:41:20;;;;;;;23.08;12.88;;;22.70;50.20;;;;;;6224299;28;84315;-62
2021/09/28 11:44:21;;;;;;;28.17;13.85;;;22.70;50.10;;;;;;6223076;28;83450;-62
2021/09/28 11:47:21;;;;;;;24.95;15.52;;;22.70;50.20;;;;;;6221944;28;83286;-63
2021/09/28 11:50:22;;;;;;;28.05;14.00;;;22.70;50.70;;;;;;6228018;27;88970;-62
2021/09/28 11:53:22;;;;;;;22.05;13.00;;;22.70;50.30;;;;;;6228258;28;83051;-62
2021/09/28 11:56:23;;;;;;;17.80;11.57;;;22.80;50.30;;;;;;6230696;27;82965;-62
2021/09/28 11:59:23;;;;;;;13.77;9.50;;;22.80;50.30;;;;;;6230240;27;82785;-61
2021/09/28 12:02:24;;;;;;;20.90;9.65;;;22.80;50.10;;;;;;6227850;28;83088;-61
2021/09/28 12:05:27;;;;;;;26.73;9.60;;;22.90;50.00;;;;;;6227802;28;80664;-62
2021/09/28 12:08:27;;;;;;;17.17;8.52;;;22.90;50.20;;;;;;6227588;28;80443;-62
2021/09/28 12:11:33;;;;;;;31.48;11.75;;;22.90;50.10;;;;;;6227323;28;80961;-62
2021/09/28 12:14:37;;;;;;;33.47;11.18;;;22.90;50.50;;;;;;6219265;28;83794;-63
2021/09/28 12:17:46;;;;;;;28.67;11.07;;;22.90;50.50;;;;;;6221391;28;83818;-62
2021/09/28 12:20:46;;;;;;;28.50;10.55;;;23.00;50.70;;;;;;6224090;27;83930;-63
2021/09/28 12:23:47;;;;;;;33.10;11.05;;;22.90;51.00;;;;;;6219354;28;83285;-63
2021/09/28 12:26:47;;;;;;;23.38;10.35;;;23.00;50.90;;;;;;6218619;28;84125;-62
2021/09/28 12:29:49;;;;;;;19.90;9.95;;;23.00;50.70;;;;;;6221866;27;83006;-62
2021/09/28 12:32:50;;;;;;;21.05;10.30;;;23.00;50.90;;;;;;6222169;27;82784;-63
2021/09/28 12:35:51;;;;;;;18.55;9.75;;;23.00;50.90;;;;;;6224901;28;83606;-62
2021/09/28 12:38:51;;;;;;;16.83;8.05;;;23.00;51.00;;;;;;6226215;28;82655;-63
2021/09/28 12:41:52;;;;;;;18.38;8.30;;;23.00;50.90;;;;;;6230792;28;80961;-64
2021/09/28 12:44:52;;;;;;;16.02;8.48;;;23.00;50.90;;;;;;6225866;27;81432;-61
2021/09/28 12:47:53;;;;;;;12.00;8.02;;;23.00;51.00;;;;;;6230721;28;80717;-61
2021/09/28 12:50:53;;;;;;;19.60;7.90;;;23.00;51.40;;;;;;6233139;27;82002;-61
2021/09/28 12:53:54;;;;;;;15.07;7.80;;;23.00;51.50;;;;;;6225419;28;81574;-61
2021/09/28 12:56:54;;;;;;;10.27;7.50;;;22.90;50.70;;;;;;6224071;27;80704;-61
2021/09/28 12:59:55;;;;;;;10.73;7.13;;;22.90;50.20;;;;;;6227091;28;81915;-62
2021/09/28 13:02:55;;;;;;;10.38;6.82;;;22.90;50.10;;;;;;6225838;28;80909;-62
2021/09/28 13:05:57;;;;;;;11.68;7.45;;;22.90;50.40;;;;;;6223596;27;80544;-62
2021/09/28 13:08:58;;;;;;;11.80;7.18;;;22.90;50.50;;;;;;6224432;27;86647;-62
2021/09/28 13:11:58;;;;;;;17.23;8.52;;;22.90;50.90;;;;;;6225492;27;82029;-63
2021/09/28 13:14:59;;;;;;;11.55;7.20;;;22.90;51.40;;;;;;6227429;27;80645;-63
2021/09/28 13:17:59;;;;;;;17.90;6.18;;;22.90;51.50;;;;;;6195115;28;81401;-63
2021/09/28 13:21:00;;;;;;;13.35;7.00;;;22.90;51.60;;;;;;6194408;28;81687;-64
2021/09/28 13:24:00;;;;;;;13.20;6.93;;;22.90;51.90;;;;;;6226688;28;81793;-64
2021/09/28 13:27:01;;;;;;;12.65;7.60;;;22.80;52.00;;;;;;6229653;27;80747;-63
2021/09/28 13:30:01;;;;;;;10.63;6.18;;;22.90;52.00;;;;;;6223101;28;81371;-63
2021/09/28 13:33:02;;;;;;;14.10;6.38;;;22.80;51.80;;;;;;6225149;28;87383;-63
2021/09/28 13:36:02;;;;;;;9.73;6.10;;;22.80;51.60;;;;;;6223159;28;80939;-63
2021/09/28 13:39:04;;;;;;;12.52;5.93;;;22.80;51.50;;;;;;6227422;27;80147;-63
2021/09/28 13:42:04;;;;;;;11.15;5.55;;;22.80;51.60;;;;;;6229882;27;81953;-63
2021/09/28 13:45:05;;;;;;;10.50;5.20;;;22.70;51.40;;;;;;6225672;27;80556;-63
2021/09/28 13:48:06;;;;;;;11.32;5.50;;;22.70;51.50;;;;;;6230360;27;80375;-63
2021/09/28 13:51:07;;;;;;;9.30;5.38;;;22.70;51.90;;;;;;6229646;27;80556;-63
2021/09/28 13:54:07;;;;;;;9.88;4.72;;;22.70;51.70;;;;;;6227422;27;81262;-64
2021/09/28 13:57:08;;;;;;;7.13;5.30;;;22.70;51.50;;;;;;6228817;27;80582;-63
2021/09/28 14:00:08;;;;;;;7.97;4.75;;;22.70;51.50;;;;;;6230776;27;82979;-63
2021/09/28 14:03:09;;;;;;;9.25;4.90;;;22.70;51.80;;;;;;6230140;27;80542;-64
2021/09/28 14:06:10;;;;;;;11.55;5.10;;;22.70;52.40;;;;;;6222429;27;80936;-64
2021/09/28 14:09:11;;;;;;;13.82;5.55;;;22.70;51.50;;;;;;6226394;27;80655;-63
2021/09/28 14:12:12;;;;;;;11.00;4.65;;;22.70;51.60;;;;;;6228423;28;80514;-63
2021/09/28 14:15:12;;;;;;;14.45;4.80;;;22.70;51.40;;;;;;6225602;28;83317;-64
2021/09/28 14:18:13;;;;;;;12.30;5.05;;;22.70;51.40;;;;;;6226038;27;81890;-64
2021/09/28 14:21:13;;;;;;;8.00;4.88;;;22.70;51.30;;;;;;6230049;27;80170;-64
2021/09/28 14:24:14;;;;;;;5.95;4.45;;;22.70;51.30;;;;;;6232146;27;80567;-63
2021/09/28 14:27:14;;;;;;;8.20;4.95;;;22.70;51.70;;;;;;6224662;28;81793;-63
2021/09/28 14:30:15;;;;;;;11.75;5.00;;;22.60;51.80;;;;;;6226723;27;81846;-63
2021/09/28 14:33:16;;;;;;;10.90;4.90;;;22.60;52.10;;;;;;6217570;28;81839;-63
2021/09/28 14:36:16;;;;;;;12.27;4.97;;;22.60;51.50;;;;;;6224875;28;81427;-64
2021/09/28 14:39:17;;;;;;;10.75;5.03;;;22.70;51.40;;;;;;6217844;28;80771;-64
2021/09/28 14:42:17;;;;;;;6.03;4.50;;;22.60;51.10;;;;;;6223744;28;81354;-63
2021/09/28 14:45:18;;;;;;;11.02;5.53;;;22.70;50.90;;;;;;6231211;27;81497;-63
2021/09/28 14:48:18;;;;;;;6.60;4.30;;;22.70;51.00;;;;;;6230644;28;80431;-62
2021/09/28 14:51:19;;;;;;;8.05;4.72;;;22.70;50.90;;;;;;6232428;27;80806;-63
2021/09/28 14:54:20;;;;;;;8.15;4.95;;;22.70;51.10;;;;;;6225659;27;80492;-63
2021/09/28 14:57:21;;;;;;;14.52;5.40;;;22.60;51.30;;;;;;6201838;28;82005;-62
2021/09/28 15:00:21;;;;;;;9.50;5.07;;;22.60;50.90;;;;;;6230143;27;81606;-62
2021/09/28 15:03:22;;;;;;;9.68;5.20;;;22.60;51.30;;;;;;6228251;27;81173;-62
2021/09/28 15:06:22;;;;;;;10.63;5.28;;;22.50;51.50;;;;;;6225259;27;81413;-63
2021/09/28 15:09:23;;;;;;;17.85;6.30;;;22.60;51.00;;;;;;6221489;27;80956;-63
2021/09/28 15:12:23;;;;;;;13.40;5.50;;;22.60;50.90;;;;;;6230540;28;80524;-63
2021/09/28 15:15:24;;;;;;;9.63;5.38;;;22.60;51.40;;;;;;6229621;27;80375;-63
2021/09/28 15:18:24;;;;;;;10.70;5.07;;;22.60;51.70;;;;;;6229414;28;82644;-63
2021/09/28 15:21:25;;;;;;;10.25;5.22;;;22.60;52.40;;;;;;6229868;27;81454;-62
2021/09/28 15:24:25;;;;;;;9.18;5.20;;;22.70;52.60;;;;;;6230813;27;80352;-63
2021/09/28 15:27:26;;;;;;;8.68;5.10;;;22.60;53.20;;;;;;6229069;27;80651;-63
2021/09/28 15:30:26;;;;;;;11.40;5.70;;;22.60;53.80;;;;;;6229817;28;81089;-61
2021/09/28 15:33:27;;;;;;;8.02;4.65;;;22.70;53.70;;;;;;6231503;27;85756;-63
2021/09/28 15:36:30;;;;;;;11.48;4.95;;;22.60;54.00;;;;;;6232001;27;82647;-63